sensor_id;sensor_type;location;lat;lon;timestamp;pressure;altitude;pressure_sealevel;temperature;humidity
41467;BME280;27205;53.690;19.948;2023-01-25T00:02:02;102092.91;;;-1.42;91.61
41467;BME280;27205;53.690;19.948;2023-01-25T00:07:06;102084.75;;;-1.49;91.56
41467;BME280;27205;53.690;19.948;2023-01-25T00:12:10;102070.42;;;-1.55;91.55
41467;BME280;27205;53.690;19.948;2023-01-25T00:17:13;102066.75;;;-1.53;91.62
41467;BME280;27205;53.690;19.948;2023-01-25T00:22:17;102070.27;;;-1.57;91.46
41467;BME280;27205;53.690;19.948;2023-01-25T00:27:21;102069.57;;;-1.60;91.50
41467;BME280;27205;53.690;19.948;2023-01-25T00:32:35;102066.22;;;-1.63;91.37
41467;BME280;27205;53.690;19.948;2023-01-25T00:37:42;102065.17;;;-1.64;91.56
41467;BME280;27205;53.690;19.948;2023-01-25T00:42:46;102052.24;;;-1.73;91.54
41467;BME280;27205;53.690;19.948;2023-01-25T00:47:53;102043.22;;;-1.75;91.66
41467;BME280;27205;53.690;19.948;2023-01-25T00:52:57;102046.54;;;-1.73;91.70
41467;BME280;27205;53.690;19.948;2023-01-25T00:58:00;102035.58;;;-1.70;91.63
41467;BME280;27205;53.690;19.948;2023-01-25T01:03:04;102028.58;;;-1.70;91.63
41467;BME280;27205;53.690;19.948;2023-01-25T01:08:07;102022.88;;;-1.74;91.31
41467;BME280;27205;53.690;19.948;2023-01-25T01:13:11;102012.61;;;-1.77;91.61
41467;BME280;27205;53.690;19.948;2023-01-25T01:18:15;102008.17;;;-1.75;91.58
41467;BME280;27205;53.690;19.948;2023-01-25T01:23:19;102001.98;;;-1.83;91.18
41467;BME280;27205;53.690;19.948;2023-01-25T01:28:22;101999.05;;;-1.87;91.49
41467;BME280;27205;53.690;19.948;2023-01-25T01:33:26;102003.27;;;-1.84;91.51
41467;BME280;27205;53.690;19.948;2023-01-25T01:38:31;101996.92;;;-1.82;91.36
41467;BME280;27205;53.690;19.948;2023-01-25T01:43:34;101988.59;;;-1.84;91.32
41467;BME280;27205;53.690;19.948;2023-01-25T01:54:06;101981.39;;;-1.87;91.21
41467;BME280;27205;53.690;19.948;2023-01-25T01:59:11;101978.60;;;-1.90;91.21
41467;BME280;27205;53.690;19.948;2023-01-25T02:04:15;101973.96;;;-1.95;91.03
41467;BME280;27205;53.690;19.948;2023-01-25T02:09:23;101971.70;;;-2.00;91.19
41467;BME280;27205;53.690;19.948;2023-01-25T02:14:28;101968.92;;;-2.00;91.03
41467;BME280;27205;53.690;19.948;2023-01-25T02:19:48;101968.77;;;-2.04;90.95
41467;BME280;27205;53.690;19.948;2023-01-25T02:25:10;101969.02;;;-2.09;90.77
41467;BME280;27205;53.690;19.948;2023-01-25T02:30:16;101977.13;;;-2.11;90.77
41467;BME280;27205;53.690;19.948;2023-01-25T02:35:22;101967.71;;;-2.13;90.87
41467;BME280;27205;53.690;19.948;2023-01-25T02:40:28;101968.15;;;-2.14;90.46
41467;BME280;27205;53.690;19.948;2023-01-25T02:45:33;101961.39;;;-2.20;90.76
41467;BME280;27205;53.690;19.948;2023-01-25T02:50:37;101961.91;;;-2.14;91.02
41467;BME280;27205;53.690;19.948;2023-01-25T02:55:40;101947.64;;;-2.05;91.14
41467;BME280;27205;53.690;19.948;2023-01-25T03:00:44;101946.31;;;-2.03;90.88
41467;BME280;27205;53.690;19.948;2023-01-25T03:05:47;101933.76;;;-2.05;90.71
41467;BME280;27205;53.690;19.948;2023-01-25T03:10:58;101929.96;;;-2.00;90.99
41467;BME280;27205;53.690;19.948;2023-01-25T03:16:05;101929.88;;;-2.05;90.85
41467;BME280;27205;53.690;19.948;2023-01-25T03:21:13;101921.00;;;-2.08;90.87
41467;BME280;27205;53.690;19.948;2023-01-25T03:26:20;101916.60;;;-2.16;90.88
41467;BME280;27205;53.690;19.948;2023-01-25T03:31:24;101918.42;;;-2.16;90.82
41467;BME280;27205;53.690;19.948;2023-01-25T03:36:27;101918.68;;;-2.13;90.84
41467;BME280;27205;53.690;19.948;2023-01-25T03:41:31;101918.12;;;-2.06;91.05
41467;BME280;27205;53.690;19.948;2023-01-25T03:46:35;101913.69;;;-1.98;90.97
41467;BME280;27205;53.690;19.948;2023-01-25T03:51:38;101901.06;;;-1.90;90.93
41467;BME280;27205;53.690;19.948;2023-01-25T03:56:42;101899.71;;;-1.87;90.93
41467;BME280;27205;53.690;19.948;2023-01-25T04:01:45;101900.08;;;-1.79;91.06
41467;BME280;27205;53.690;19.948;2023-01-25T04:06:49;101898.61;;;-1.80;91.05
41467;BME280;27205;53.690;19.948;2023-01-25T04:11:52;101898.45;;;-1.75;91.32
41467;BME280;27205;53.690;19.948;2023-01-25T04:16:56;101882.70;;;-1.65;91.30
41467;BME280;27205;53.690;19.948;2023-01-25T04:22:00;101868.41;;;-1.68;90.97
41467;BME280;27205;53.690;19.948;2023-01-25T04:27:04;101849.20;;;-1.75;91.06
41467;BME280;27205;53.690;19.948;2023-01-25T04:32:08;101846.98;;;-1.90;90.53
41467;BME280;27205;53.690;19.948;2023-01-25T04:37:12;101838.34;;;-2.00;90.62
41467;BME280;27205;53.690;19.948;2023-01-25T04:42:15;101843.79;;;-2.01;90.55
41467;BME280;27205;53.690;19.948;2023-01-25T04:47:19;101849.42;;;-2.03;90.64
41467;BME280;27205;53.690;19.948;2023-01-25T04:52:22;101838.75;;;-2.02;90.77
41467;BME280;27205;53.690;19.948;2023-01-25T04:57:26;101830.36;;;-2.06;90.90
41467;BME280;27205;53.690;19.948;2023-01-25T05:02:29;101824.31;;;-2.04;90.82
41467;BME280;27205;53.690;19.948;2023-01-25T05:07:33;101822.60;;;-2.05;90.71
41467;BME280;27205;53.690;19.948;2023-01-25T05:12:36;101810.19;;;-2.03;90.98
41467;BME280;27205;53.690;19.948;2023-01-25T05:17:40;101791.28;;;-2.02;91.04
41467;BME280;27205;53.690;19.948;2023-01-25T05:22:44;101785.80;;;-2.01;90.90
41467;BME280;27205;53.690;19.948;2023-01-25T05:27:47;101781.66;;;-2.02;90.91
41467;BME280;27205;53.690;19.948;2023-01-25T05:32:51;101773.34;;;-1.99;90.94
41467;BME280;27205;53.690;19.948;2023-01-25T05:37:58;101780.03;;;-2.00;91.02
41467;BME280;27205;53.690;19.948;2023-01-25T05:43:02;101777.48;;;-1.94;91.23
41467;BME280;27205;53.690;19.948;2023-01-25T05:48:05;101781.16;;;-1.93;91.01
41467;BME280;27205;53.690;19.948;2023-01-25T05:53:09;101782.07;;;-1.98;91.03
41467;BME280;27205;53.690;19.948;2023-01-25T05:58:12;101783.34;;;-2.00;91.01
41467;BME280;27205;53.690;19.948;2023-01-25T06:03:16;101791.10;;;-1.93;90.96
41467;BME280;27205;53.690;19.948;2023-01-25T06:08:20;101789.45;;;-1.86;91.03
41467;BME280;27205;53.690;19.948;2023-01-25T06:13:23;101791.15;;;-1.87;91.00
41467;BME280;27205;53.690;19.948;2023-01-25T06:18:29;101791.32;;;-1.89;91.01
41467;BME280;27205;53.690;19.948;2023-01-25T06:23:33;101779.95;;;-1.92;91.03
41467;BME280;27205;53.690;19.948;2023-01-25T06:28:37;101773.61;;;-1.88;91.03
41467;BME280;27205;53.690;19.948;2023-01-25T06:33:41;101773.85;;;-1.93;90.97
41467;BME280;27205;53.690;19.948;2023-01-25T06:38:49;101767.48;;;-1.94;90.99
41467;BME280;27205;53.690;19.948;2023-01-25T06:43:55;101767.94;;;-1.89;91.20
41467;BME280;27205;53.690;19.948;2023-01-25T06:48:59;101774.63;;;-1.85;91.17
41467;BME280;27205;53.690;19.948;2023-01-25T06:54:03;101781.59;;;-1.76;91.19
41467;BME280;27205;53.690;19.948;2023-01-25T06:59:09;101777.17;;;-1.68;91.04
41467;BME280;27205;53.690;19.948;2023-01-25T07:04:12;101781.38;;;-1.59;91.18
41467;BME280;27205;53.690;19.948;2023-01-25T07:09:16;101782.13;;;-1.54;91.30
41467;BME280;27205;53.690;19.948;2023-01-25T07:14:25;101775.24;;;-1.43;91.27
41467;BME280;27205;53.690;19.948;2023-01-25T07:19:29;101764.33;;;-1.30;91.28
41467;BME280;27205;53.690;19.948;2023-01-25T07:24:33;101763.83;;;-1.14;91.37
41467;BME280;27205;53.690;19.948;2023-01-25T07:29:36;101765.48;;;-1.01;91.52
41467;BME280;27205;53.690;19.948;2023-01-25T07:34:40;101761.27;;;-0.87;91.50
41467;BME280;27205;53.690;19.948;2023-01-25T07:39:43;101753.72;;;-0.73;91.61
41467;BME280;27205;53.690;19.948;2023-01-25T07:44:52;101745.85;;;-0.66;91.24
41467;BME280;27205;53.690;19.948;2023-01-25T07:49:56;101745.86;;;-0.56;91.24
41467;BME280;27205;53.690;19.948;2023-01-25T07:54:59;101739.48;;;-0.54;91.34
41467;BME280;27205;53.690;19.948;2023-01-25T08:00:03;101731.15;;;-0.50;91.25
41467;BME280;27205;53.690;19.948;2023-01-25T08:05:12;101725.63;;;-0.42;91.63
41467;BME280;27205;53.690;19.948;2023-01-25T08:10:16;101718.95;;;-0.32;91.03
41467;BME280;27205;53.690;19.948;2023-01-25T08:15:20;101709.75;;;-0.21;91.12
41467;BME280;27205;53.690;19.948;2023-01-25T08:20:25;101700.57;;;-0.13;91.22
41467;BME280;27205;53.690;19.948;2023-01-25T08:25:28;101701.57;;;-0.16;91.39
41467;BME280;27205;53.690;19.948;2023-01-25T08:30:32;101697.96;;;-0.16;91.52
41467;BME280;27205;53.690;19.948;2023-01-25T08:35:36;101682.41;;;-0.12;91.42
41467;BME280;27205;53.690;19.948;2023-01-25T08:40:40;101672.04;;;-0.04;91.54
41467;BME280;27205;53.690;19.948;2023-01-25T08:45:44;101669.25;;;0.04;91.46
41467;BME280;27205;53.690;19.948;2023-01-25T08:50:47;101668.05;;;0.12;91.43
41467;BME280;27205;53.690;19.948;2023-01-25T08:55:51;101663.88;;;0.09;90.97
41467;BME280;27205;53.690;19.948;2023-01-25T09:01:00;101661.59;;;0.03;91.27
41467;BME280;27205;53.690;19.948;2023-01-25T09:06:06;101663.16;;;0.04;91.39
41467;BME280;27205;53.690;19.948;2023-01-25T09:11:12;101661.81;;;0.07;91.22
41467;BME280;27205;53.690;19.948;2023-01-25T09:16:20;101663.34;;;0.09;91.43
41467;BME280;27205;53.690;19.948;2023-01-25T09:21:31;101665.73;;;0.09;91.14
41467;BME280;27205;53.690;19.948;2023-01-25T09:26:38;101667.14;;;0.14;91.48
41467;BME280;27205;53.690;19.948;2023-01-25T09:31:43;101654.83;;;0.21;91.46
41467;BME280;27205;53.690;19.948;2023-01-25T09:36:47;101645.23;;;0.26;91.08
41467;BME280;27205;53.690;19.948;2023-01-25T09:53:04;101628.91;;;0.44;90.62
41467;BME280;27205;53.690;19.948;2023-01-25T09:58:18;101629.91;;;0.49;90.89
41467;BME280;27205;53.690;19.948;2023-01-25T10:03:51;101628.34;;;0.61;91.39
41467;BME280;27205;53.690;19.948;2023-01-25T10:09:06;101623.73;;;0.67;90.94
41467;BME280;27205;53.690;19.948;2023-01-25T10:14:17;101616.29;;;0.72;91.19
41467;BME280;27205;53.690;19.948;2023-01-25T10:19:34;101601.39;;;0.81;91.23
41467;BME280;27205;53.690;19.948;2023-01-25T10:30:33;101584.68;;;1.03;91.08
41467;BME280;27205;53.690;19.948;2023-01-25T10:35:45;101576.12;;;1.17;91.13
41467;BME280;27205;53.690;19.948;2023-01-25T10:41:01;101569.16;;;1.43;90.98
41467;BME280;27205;53.690;19.948;2023-01-25T10:46:22;101568.05;;;1.41;90.71
41467;BME280;27205;53.690;19.948;2023-01-25T10:51:32;101564.02;;;1.53;91.06
41467;BME280;27205;53.690;19.948;2023-01-25T10:56:38;101559.92;;;1.54;90.66
41467;BME280;27205;53.690;19.948;2023-01-25T11:01:42;101548.53;;;1.42;90.76
41467;BME280;27205;53.690;19.948;2023-01-25T11:06:46;101536.73;;;1.29;90.59
41467;BME280;27205;53.690;19.948;2023-01-25T11:16:59;101513.98;;;1.08;90.90
41467;BME280;27205;53.690;19.948;2023-01-25T11:27:23;101500.54;;;1.37;91.01
41467;BME280;27205;53.690;19.948;2023-01-25T11:32:27;101490.78;;;1.32;90.91
41467;BME280;27205;53.690;19.948;2023-01-25T11:48:28;101459.88;;;1.66;91.01
41467;BME280;27205;53.690;19.948;2023-01-25T11:53:55;101457.10;;;1.67;90.44
41467;BME280;27205;53.690;19.948;2023-01-25T12:26:03;101409.91;;;1.33;90.34
41467;BME280;27205;53.690;19.948;2023-01-25T12:36:34;101388.70;;;1.21;90.74
41467;BME280;27205;53.690;19.948;2023-01-25T12:41:43;101376.48;;;1.10;90.48
41467;BME280;27205;53.690;19.948;2023-01-25T12:47:16;101373.66;;;0.99;90.44
41467;BME280;27205;53.690;19.948;2023-01-25T12:52:35;101355.09;;;0.95;90.27
41467;BME280;27205;53.690;19.948;2023-01-25T13:03:28;101338.13;;;1.26;90.30
41467;BME280;27205;53.690;19.948;2023-01-25T13:13:52;101320.54;;;1.36;90.37
41467;BME280;27205;53.690;19.948;2023-01-25T13:18:57;101312.16;;;1.36;90.66
41467;BME280;27205;53.690;19.948;2023-01-25T13:24:20;101304.56;;;1.27;90.62
41467;BME280;27205;53.690;19.948;2023-01-25T13:39:46;101298.23;;;1.13;90.63
41467;BME280;27205;53.690;19.948;2023-01-25T13:45:17;101296.81;;;1.03;90.46
41467;BME280;27205;53.690;19.948;2023-01-25T13:50:26;101293.42;;;0.90;90.56
41467;BME280;27205;53.690;19.948;2023-01-25T13:55:42;101292.30;;;0.72;90.47
41467;BME280;27205;53.690;19.948;2023-01-25T14:01:04;101287.02;;;0.64;90.65
41467;BME280;27205;53.690;19.948;2023-01-25T14:06:38;101277.59;;;0.58;90.54
41467;BME280;27205;53.690;19.948;2023-01-25T14:11:53;101280.70;;;0.53;91.01
41467;BME280;27205;53.690;19.948;2023-01-25T14:22:36;101267.27;;;0.57;91.17
41467;BME280;27205;53.690;19.948;2023-01-25T14:32:45;101247.35;;;0.41;91.05
41467;BME280;27205;53.690;19.948;2023-01-25T14:37:50;101240.72;;;0.30;90.67
41467;BME280;27205;53.690;19.948;2023-01-25T14:42:54;101236.86;;;0.25;90.67
41467;BME280;27205;53.690;19.948;2023-01-25T14:47:58;101240.98;;;0.13;90.73
41467;BME280;27205;53.690;19.948;2023-01-25T14:53:15;101235.16;;;0.05;90.95
41467;BME280;27205;53.690;19.948;2023-01-25T14:58:23;101227.66;;;-0.01;91.07
41467;BME280;27205;53.690;19.948;2023-01-25T15:03:29;101227.29;;;0.01;91.04
41467;BME280;27205;53.690;19.948;2023-01-25T15:08:37;101219.13;;;0.04;91.39
41467;BME280;27205;53.690;19.948;2023-01-25T15:13:41;101212.58;;;0.06;91.45
41467;BME280;27205;53.690;19.948;2023-01-25T15:18:52;101213.88;;;-0.00;91.28
41467;BME280;27205;53.690;19.948;2023-01-25T15:23:58;101209.77;;;-0.07;91.21
41467;BME280;27205;53.690;19.948;2023-01-25T15:29:21;101206.63;;;-0.11;91.35
41467;BME280;27205;53.690;19.948;2023-01-25T15:34:27;101202.60;;;-0.11;91.47
41467;BME280;27205;53.690;19.948;2023-01-25T15:39:34;101196.95;;;-0.11;91.52
41467;BME280;27205;53.690;19.948;2023-01-25T15:44:38;101196.21;;;-0.15;91.49
41467;BME280;27205;53.690;19.948;2023-01-25T15:49:41;101194.24;;;-0.18;91.52
41467;BME280;27205;53.690;19.948;2023-01-25T15:54:45;101191.45;;;-0.18;91.42
41467;BME280;27205;53.690;19.948;2023-01-25T16:00:03;101185.09;;;-0.19;91.50
41467;BME280;27205;53.690;19.948;2023-01-25T16:05:09;101185.58;;;-0.30;91.30
41467;BME280;27205;53.690;19.948;2023-01-25T16:10:21;101176.48;;;-0.33;91.48
41467;BME280;27205;53.690;19.948;2023-01-25T16:15:25;101169.52;;;-0.34;91.47
41467;BME280;27205;53.690;19.948;2023-01-25T16:20:29;101160.47;;;-0.33;91.63
41467;BME280;27205;53.690;19.948;2023-01-25T16:25:33;101167.05;;;-0.32;91.58
41467;BME280;27205;53.690;19.948;2023-01-25T16:30:37;101152.22;;;-0.32;91.90
41467;BME280;27205;53.690;19.948;2023-01-25T16:35:40;101153.70;;;-0.31;91.87
41467;BME280;27205;53.690;19.948;2023-01-25T16:40:44;101143.73;;;-0.30;92.00
41467;BME280;27205;53.690;19.948;2023-01-25T16:45:47;101144.88;;;-0.31;92.09
41467;BME280;27205;53.690;19.948;2023-01-25T16:50:51;101140.52;;;-0.28;91.86
41467;BME280;27205;53.690;19.948;2023-01-25T16:55:54;101144.52;;;-0.22;92.13
41467;BME280;27205;53.690;19.948;2023-01-25T17:01:07;101139.95;;;-0.17;92.24
41467;BME280;27205;53.690;19.948;2023-01-25T17:06:23;101131.73;;;-0.12;92.06
41467;BME280;27205;53.690;19.948;2023-01-25T17:11:27;101125.68;;;-0.07;92.22
41467;BME280;27205;53.690;19.948;2023-01-25T17:16:31;101116.56;;;-0.06;92.24
41467;BME280;27205;53.690;19.948;2023-01-25T17:21:36;101109.91;;;-0.06;92.33
41467;BME280;27205;53.690;19.948;2023-01-25T17:26:39;101108.46;;;-0.11;92.21
41467;BME280;27205;53.690;19.948;2023-01-25T17:31:43;101098.23;;;-0.13;92.27
41467;BME280;27205;53.690;19.948;2023-01-25T17:36:48;101097.71;;;-0.10;92.52
41467;BME280;27205;53.690;19.948;2023-01-25T17:41:52;101094.73;;;-0.14;92.38
41467;BME280;27205;53.690;19.948;2023-01-25T17:46:56;101086.86;;;-0.12;92.41
41467;BME280;27205;53.690;19.948;2023-01-25T17:51:59;101082.05;;;-0.06;92.54
41467;BME280;27205;53.690;19.948;2023-01-25T17:57:05;101072.55;;;-0.05;92.68
41467;BME280;27205;53.690;19.948;2023-01-25T18:02:09;101074.45;;;-0.01;92.81
41467;BME280;27205;53.690;19.948;2023-01-25T18:07:13;101068.83;;;0.01;92.76
41467;BME280;27205;53.690;19.948;2023-01-25T18:12:17;101060.16;;;0.02;92.92
41467;BME280;27205;53.690;19.948;2023-01-25T18:17:22;101058.48;;;0.02;92.86
41467;BME280;27205;53.690;19.948;2023-01-25T18:22:26;101052.80;;;-0.01;92.97
41467;BME280;27205;53.690;19.948;2023-01-25T18:27:31;101041.58;;;-0.01;92.89
41467;BME280;27205;53.690;19.948;2023-01-25T18:32:34;101042.81;;;-0.02;92.93
41467;BME280;27205;53.690;19.948;2023-01-25T18:37:37;101038.85;;;-0.03;93.20
41467;BME280;27205;53.690;19.948;2023-01-25T18:42:45;101032.57;;;-0.03;93.28
41467;BME280;27205;53.690;19.948;2023-01-25T18:47:49;101018.90;;;-0.09;92.63
41467;BME280;27205;53.690;19.948;2023-01-25T18:52:53;101013.84;;;-0.11;93.04
41467;BME280;27205;53.690;19.948;2023-01-25T18:57:58;101007.30;;;-0.09;93.14
41467;BME280;27205;53.690;19.948;2023-01-25T19:03:06;101001.45;;;-0.14;93.31
41467;BME280;27205;53.690;19.948;2023-01-25T19:08:09;100990.02;;;-0.19;93.15
41467;BME280;27205;53.690;19.948;2023-01-25T19:13:13;100990.16;;;-0.20;93.19
41467;BME280;27205;53.690;19.948;2023-01-25T19:18:16;100988.56;;;-0.19;93.43
41467;BME280;27205;53.690;19.948;2023-01-25T19:23:20;100975.89;;;-0.25;93.36
41467;BME280;27205;53.690;19.948;2023-01-25T19:28:23;100972.46;;;-0.28;93.33
41467;BME280;27205;53.690;19.948;2023-01-25T19:33:27;100971.23;;;-0.27;93.63
41467;BME280;27205;53.690;19.948;2023-01-25T19:38:31;100969.60;;;-0.27;93.25
41467;BME280;27205;53.690;19.948;2023-01-25T19:43:35;100966.52;;;-0.27;93.63
41467;BME280;27205;53.690;19.948;2023-01-25T19:48:40;100956.72;;;-0.24;93.79
41467;BME280;27205;53.690;19.948;2023-01-25T19:53:46;100952.19;;;-0.21;93.92
41467;BME280;27205;53.690;19.948;2023-01-25T19:58:50;100949.76;;;-0.16;93.82
41467;BME280;27205;53.690;19.948;2023-01-25T20:03:55;100945.61;;;-0.13;93.94
41467;BME280;27205;53.690;19.948;2023-01-25T20:09:04;100940.08;;;-0.08;94.02
41467;BME280;27205;53.690;19.948;2023-01-25T20:14:10;100940.40;;;-0.06;93.86
41467;BME280;27205;53.690;19.948;2023-01-25T20:19:14;100940.77;;;-0.07;94.07
41467;BME280;27205;53.690;19.948;2023-01-25T20:24:18;100931.66;;;-0.06;94.29
41467;BME280;27205;53.690;19.948;2023-01-25T20:29:21;100917.60;;;-0.03;94.38
41467;BME280;27205;53.690;19.948;2023-01-25T20:34:26;100918.77;;;-0.02;94.29
41467;BME280;27205;53.690;19.948;2023-01-25T20:39:29;100925.27;;;-0.03;94.16
41467;BME280;27205;53.690;19.948;2023-01-25T20:44:33;100922.39;;;-0.04;93.84
41467;BME280;27205;53.690;19.948;2023-01-25T20:49:36;100923.41;;;-0.03;94.23
41467;BME280;27205;53.690;19.948;2023-01-25T20:54:40;100913.56;;;-0.05;94.25
41467;BME280;27205;53.690;19.948;2023-01-25T20:59:44;100912.75;;;-0.02;94.24
41467;BME280;27205;53.690;19.948;2023-01-25T21:04:48;100907.80;;;-0.00;94.59
41467;BME280;27205;53.690;19.948;2023-01-25T21:09:51;100903.41;;;0.02;94.43
41467;BME280;27205;53.690;19.948;2023-01-25T21:14:55;100901.55;;;0.02;94.33
41467;BME280;27205;53.690;19.948;2023-01-25T21:19:58;100895.76;;;0.03;94.50
41467;BME280;27205;53.690;19.948;2023-01-25T21:25:02;100898.67;;;-0.02;94.38
41467;BME280;27205;53.690;19.948;2023-01-25T21:30:06;100904.42;;;-0.05;94.53
41467;BME280;27205;53.690;19.948;2023-01-25T21:35:11;100900.64;;;-0.05;94.22
41467;BME280;27205;53.690;19.948;2023-01-25T21:40:15;100903.20;;;-0.03;94.53
41467;BME280;27205;53.690;19.948;2023-01-25T21:45:19;100903.75;;;-0.03;94.38
41467;BME280;27205;53.690;19.948;2023-01-25T21:50:41;100890.52;;;-0.04;94.44
41467;BME280;27205;53.690;19.948;2023-01-25T21:56:04;100883.53;;;-0.08;94.29
41467;BME280;27205;53.690;19.948;2023-01-25T22:01:07;100877.58;;;-0.08;94.60
41467;BME280;27205;53.690;19.948;2023-01-25T22:06:12;100873.93;;;-0.09;94.69
41467;BME280;27205;53.690;19.948;2023-01-25T22:11:15;100876.63;;;-0.10;94.73
41467;BME280;27205;53.690;19.948;2023-01-25T22:16:19;100877.99;;;-0.12;94.60
41467;BME280;27205;53.690;19.948;2023-01-25T22:21:25;100873.62;;;-0.10;94.87
41467;BME280;27205;53.690;19.948;2023-01-25T22:26:57;100860.56;;;-0.08;94.86
41467;BME280;27205;53.690;19.948;2023-01-25T22:32:01;100854.73;;;0.00;95.01
41467;BME280;27205;53.690;19.948;2023-01-25T22:37:05;100847.55;;;0.02;94.95
41467;BME280;27205;53.690;19.948;2023-01-25T22:42:08;100845.89;;;0.07;94.90
41467;BME280;27205;53.690;19.948;2023-01-25T22:47:12;100837.23;;;0.09;95.04
41467;BME280;27205;53.690;19.948;2023-01-25T22:52:15;100820.13;;;0.11;95.37
41467;BME280;27205;53.690;19.948;2023-01-25T22:57:19;100812.10;;;0.14;95.22
41467;BME280;27205;53.690;19.948;2023-01-25T23:02:22;100811.36;;;0.20;95.32
41467;BME280;27205;53.690;19.948;2023-01-25T23:07:26;100816.02;;;0.23;95.25
41467;BME280;27205;53.690;19.948;2023-01-25T23:12:29;100812.55;;;0.25;95.20
41467;BME280;27205;53.690;19.948;2023-01-25T23:17:33;100795.88;;;0.33;95.19
41467;BME280;27205;53.690;19.948;2023-01-25T23:22:55;100790.75;;;0.32;95.15
41467;BME280;27205;53.690;19.948;2023-01-25T23:27:59;100787.50;;;0.30;95.32
41467;BME280;27205;53.690;19.948;2023-01-25T23:33:02;100787.09;;;0.26;95.16
41467;BME280;27205;53.690;19.948;2023-01-25T23:38:06;100784.11;;;0.19;95.12
41467;BME280;27205;53.690;19.948;2023-01-25T23:43:17;100788.43;;;0.17;95.32
41467;BME280;27205;53.690;19.948;2023-01-25T23:48:20;100784.41;;;0.15;95.36
41467;BME280;27205;53.690;19.948;2023-01-25T23:53:25;100775.43;;;0.15;95.47
41467;BME280;27205;53.690;19.948;2023-01-25T23:58:29;100770.17;;;0.17;95.40
